sensor_id;sensor_type;location;lat;lon;timestamp;pressure;altitude;pressure_sealevel;temperature;humidity
46412;BME280;32113;42.012;24.870;2023-01-27T00:02:23;98316.38;;;4.75;74.45
46412;BME280;32113;42.012;24.870;2023-01-27T00:04:48;98303.66;;;4.75;75.09
46412;BME280;32113;42.012;24.870;2023-01-27T00:07:13;98304.50;;;4.72;74.34
46412;BME280;32113;42.012;24.870;2023-01-27T00:09:38;98306.22;;;4.69;74.60
46412;BME280;32113;42.012;24.870;2023-01-27T00:12:05;98304.50;;;4.72;74.45
46412;BME280;32113;42.012;24.870;2023-01-27T00:14:49;98305.38;;;4.75;74.78
46412;BME280;32113;42.012;24.870;2023-01-27T00:17:15;98300.31;;;4.82;74.84
46412;BME280;32113;42.012;24.870;2023-01-27T00:19:40;98298.59;;;4.88;74.68
46412;BME280;32113;42.012;24.870;2023-01-27T00:22:08;98305.38;;;4.90;74.56
46412;BME280;32113;42.012;24.870;2023-01-27T00:24:52;98295.22;;;4.93;74.16
46412;BME280;32113;42.012;24.870;2023-01-27T00:27:18;98280.81;;;4.94;73.78
46412;BME280;32113;42.012;24.870;2023-01-27T00:29:43;98279.97;;;4.95;73.62
46412;BME280;32113;42.012;24.870;2023-01-27T00:32:08;98277.44;;;4.90;74.00
46412;BME280;32113;42.012;24.870;2023-01-27T00:34:52;98282.53;;;4.85;74.17
46412;BME280;32113;42.012;24.870;2023-01-27T00:37:18;98290.13;;;4.90;74.33
46412;BME280;32113;42.012;24.870;2023-01-27T00:39:43;98283.38;;;4.83;74.29
46412;BME280;32113;42.012;24.870;2023-01-27T00:42:08;98289.28;;;4.85;74.55
46412;BME280;32113;42.012;24.870;2023-01-27T00:44:33;98304.53;;;4.79;74.15
46412;BME280;32113;42.012;24.870;2023-01-27T00:46:59;98304.53;;;4.69;74.55
46412;BME280;32113;42.012;24.870;2023-01-27T00:49:24;98295.19;;;4.62;75.02
46412;BME280;32113;42.012;24.870;2023-01-27T00:51:49;98276.53;;;4.62;75.45
46412;BME280;32113;42.012;24.870;2023-01-27T00:54:14;98262.16;;;4.62;75.48
46412;BME280;32113;42.012;24.870;2023-01-27T00:56:40;98247.78;;;4.64;74.97
46412;BME280;32113;42.012;24.870;2023-01-27T00:59:05;98232.50;;;4.66;75.43
46412;BME280;32113;42.012;24.870;2023-01-27T01:01:31;98207.09;;;4.67;74.70
46412;BME280;32113;42.012;24.870;2023-01-27T01:03:58;98198.63;;;4.68;74.86
46412;BME280;32113;42.012;24.870;2023-01-27T01:06:23;98194.38;;;4.66;74.89
46412;BME280;32113;42.012;24.870;2023-01-27T01:08:49;98208.78;;;4.71;75.13
46412;BME280;32113;42.012;24.870;2023-01-27T01:11:17;98231.66;;;4.71;75.01
46412;BME280;32113;42.012;24.870;2023-01-27T01:13:43;98257.09;;;4.65;74.58
46412;BME280;32113;42.012;24.870;2023-01-27T01:16:12;98246.06;;;4.65;74.94
46412;BME280;32113;42.012;24.870;2023-01-27T01:18:38;98242.69;;;4.77;74.98
46412;BME280;32113;42.012;24.870;2023-01-27T01:21:04;98250.31;;;4.86;74.29
46412;BME280;32113;42.012;24.870;2023-01-27T01:23:33;98263.84;;;4.82;74.42
46412;BME280;32113;42.012;24.870;2023-01-27T01:25:58;98277.44;;;4.82;74.17
46412;BME280;32113;42.012;24.870;2023-01-27T01:28:24;98286.72;;;4.82;74.52
46412;BME280;32113;42.012;24.870;2023-01-27T01:30:49;98287.59;;;4.87;74.09
46412;BME280;32113;42.012;24.870;2023-01-27T01:33:15;98284.22;;;4.86;73.82
46412;BME280;32113;42.012;24.870;2023-01-27T01:35:40;98265.56;;;4.83;74.55
46412;BME280;32113;42.012;24.870;2023-01-27T01:38:06;98253.72;;;4.88;74.42
46412;BME280;32113;42.012;24.870;2023-01-27T01:40:31;98257.06;;;4.87;74.62
46412;BME280;32113;42.012;24.870;2023-01-27T01:48:04;98229.97;;;4.91;74.41
46412;BME280;32113;42.012;24.870;2023-01-27T01:50:30;98236.75;;;4.87;74.22
46412;BME280;32113;42.012;24.870;2023-01-27T01:52:57;98231.69;;;4.93;73.91
46412;BME280;32113;42.012;24.870;2023-01-27T01:55:24;98223.19;;;4.90;73.37
46412;BME280;32113;42.012;24.870;2023-01-27T01:57:49;98213.88;;;4.87;73.78
46412;BME280;32113;42.012;24.870;2023-01-27T02:00:15;98229.13;;;4.79;74.11
46412;BME280;32113;42.012;24.870;2023-01-27T02:02:40;98228.28;;;4.74;74.50
46412;BME280;32113;42.012;24.870;2023-01-27T02:05:13;98229.97;;;4.77;74.19
46412;BME280;32113;42.012;24.870;2023-01-27T02:10:15;98212.19;;;4.77;74.49
46412;BME280;32113;42.012;24.870;2023-01-27T02:12:40;98205.41;;;4.77;75.02
46412;BME280;32113;42.012;24.870;2023-01-27T02:15:06;98201.19;;;4.76;74.83
46412;BME280;32113;42.012;24.870;2023-01-27T02:17:32;98198.63;;;4.71;74.48
46412;BME280;32113;42.012;24.870;2023-01-27T02:20:08;98196.09;;;4.70;74.97
46412;BME280;32113;42.012;24.870;2023-01-27T02:22:46;98196.94;;;4.78;74.98
46412;BME280;32113;42.012;24.870;2023-01-27T02:27:41;98159.66;;;4.79;75.16
46412;BME280;32113;42.012;24.870;2023-01-27T02:30:07;98174.91;;;4.76;75.03
46412;BME280;32113;42.012;24.870;2023-01-27T02:32:32;98167.28;;;4.79;74.54
46412;BME280;32113;42.012;24.870;2023-01-27T02:34:58;98166.44;;;4.83;75.18
46412;BME280;32113;42.012;24.870;2023-01-27T02:37:24;98147.78;;;4.81;75.15
46412;BME280;32113;42.012;24.870;2023-01-27T02:39:50;98148.63;;;4.88;74.71
46412;BME280;32113;42.012;24.870;2023-01-27T02:42:16;98162.19;;;4.85;75.09
46412;BME280;32113;42.012;24.870;2023-01-27T02:44:42;98157.94;;;4.87;74.37
46412;BME280;32113;42.012;24.870;2023-01-27T02:47:07;98156.25;;;4.91;75.38
46412;BME280;32113;42.012;24.870;2023-01-27T02:49:32;98161.34;;;4.89;74.60
46412;BME280;32113;42.012;24.870;2023-01-27T02:51:58;98158.81;;;4.83;74.95
46412;BME280;32113;42.012;24.870;2023-01-27T02:54:23;98168.97;;;4.86;75.06
46412;BME280;32113;42.012;24.870;2023-01-27T02:56:50;98161.34;;;4.84;74.55
46412;BME280;32113;42.012;24.870;2023-01-27T02:59:15;98155.41;;;4.81;74.98
46412;BME280;32113;42.012;24.870;2023-01-27T03:01:41;98149.50;;;4.76;75.26
46412;BME280;32113;42.012;24.870;2023-01-27T03:04:06;98141.00;;;4.84;75.04
46412;BME280;32113;42.012;24.870;2023-01-27T03:06:33;98139.31;;;4.80;75.18
46412;BME280;32113;42.012;24.870;2023-01-27T03:08:58;98135.09;;;4.82;74.86
46412;BME280;32113;42.012;24.870;2023-01-27T03:11:23;98123.22;;;4.84;74.64
46412;BME280;32113;42.012;24.870;2023-01-27T03:14:07;98126.59;;;4.91;74.52
46412;BME280;32113;42.012;24.870;2023-01-27T03:16:33;98140.97;;;4.94;75.05
46412;BME280;32113;42.012;24.870;2023-01-27T03:19:17;98146.94;;;4.96;74.26
46412;BME280;32113;42.012;24.870;2023-01-27T03:21:42;98153.72;;;4.89;75.27
46412;BME280;32113;42.012;24.870;2023-01-27T03:24:09;98155.44;;;4.85;75.73
46412;BME280;32113;42.012;24.870;2023-01-27T03:26:34;98146.91;;;4.91;75.48
46412;BME280;32113;42.012;24.870;2023-01-27T03:29:02;98146.09;;;4.88;75.24
46412;BME280;32113;42.012;24.870;2023-01-27T03:31:46;98155.41;;;4.89;75.53
46412;BME280;32113;42.012;24.870;2023-01-27T03:34:12;98165.56;;;4.87;75.13
46412;BME280;32113;42.012;24.870;2023-01-27T03:36:37;98156.25;;;4.86;74.85
46412;BME280;32113;42.012;24.870;2023-01-27T03:39:21;98159.66;;;4.83;75.51
46412;BME280;32113;42.012;24.870;2023-01-27T03:42:05;98159.63;;;4.91;75.32
46412;BME280;32113;42.012;24.870;2023-01-27T03:44:49;98166.44;;;4.88;75.39
46412;BME280;32113;42.012;24.870;2023-01-27T03:47:33;98168.94;;;4.95;74.57
46412;BME280;32113;42.012;24.870;2023-01-27T03:49:58;98165.56;;;4.98;75.08
46412;BME280;32113;42.012;24.870;2023-01-27T03:52:23;98169.78;;;4.99;74.79
46412;BME280;32113;42.012;24.870;2023-01-27T03:54:49;98167.25;;;4.96;74.50
46412;BME280;32113;42.012;24.870;2023-01-27T03:57:14;98152.00;;;4.90;75.11
46412;BME280;32113;42.012;24.870;2023-01-27T03:59:39;98140.16;;;4.89;75.38
46412;BME280;32113;42.012;24.870;2023-01-27T04:02:04;98124.91;;;4.90;75.33
46412;BME280;32113;42.012;24.870;2023-01-27T04:04:49;98118.13;;;4.89;74.86
46412;BME280;32113;42.012;24.870;2023-01-27T04:07:33;98118.13;;;4.89;74.93
46412;BME280;32113;42.012;24.870;2023-01-27T04:09:59;98108.81;;;4.88;74.90
46412;BME280;32113;42.012;24.870;2023-01-27T04:12:24;98122.34;;;4.90;74.98
46412;BME280;32113;42.012;24.870;2023-01-27T04:14:49;98122.38;;;4.84;74.88
46412;BME280;32113;42.012;24.870;2023-01-27T04:17:16;98113.06;;;4.78;76.13
46412;BME280;32113;42.012;24.870;2023-01-27T04:19:42;98102.91;;;4.78;75.96
46412;BME280;32113;42.012;24.870;2023-01-27T04:22:08;98097.81;;;4.83;75.79
46412;BME280;32113;42.012;24.870;2023-01-27T04:24:34;98102.03;;;4.84;75.76
46412;BME280;32113;42.012;24.870;2023-01-27T04:27:00;98098.66;;;4.85;75.65
46412;BME280;32113;42.012;24.870;2023-01-27T04:29:26;98107.97;;;4.89;75.74
46412;BME280;32113;42.012;24.870;2023-01-27T04:31:52;98103.72;;;4.90;74.88
46412;BME280;32113;42.012;24.870;2023-01-27T04:34:18;98102.03;;;4.87;75.83
46412;BME280;32113;42.012;24.870;2023-01-27T04:36:44;98103.72;;;4.83;75.91
46412;BME280;32113;42.012;24.870;2023-01-27T04:39:09;98110.50;;;4.86;75.76
46412;BME280;32113;42.012;24.870;2023-01-27T04:41:35;98117.28;;;4.87;75.67
46412;BME280;32113;42.012;24.870;2023-01-27T04:44:00;98110.50;;;4.86;75.78
46412;BME280;32113;42.012;24.870;2023-01-27T04:46:26;98107.97;;;4.80;76.36
46412;BME280;32113;42.012;24.870;2023-01-27T04:48:51;98113.03;;;4.84;76.17
46412;BME280;32113;42.012;24.870;2023-01-27T04:51:16;98102.88;;;4.91;75.53
46412;BME280;32113;42.012;24.870;2023-01-27T04:53:42;98102.03;;;4.90;75.88
46412;BME280;32113;42.012;24.870;2023-01-27T04:56:19;98104.56;;;4.92;75.19
46412;BME280;32113;42.012;24.870;2023-01-27T04:58:45;98103.72;;;4.90;74.52
46412;BME280;32113;42.012;24.870;2023-01-27T05:01:10;98105.41;;;4.86;75.71
46412;BME280;32113;42.012;24.870;2023-01-27T05:03:35;98116.41;;;4.91;75.37
46412;BME280;32113;42.012;24.870;2023-01-27T05:06:01;98124.03;;;4.96;75.46
46412;BME280;32113;42.012;24.870;2023-01-27T05:08:26;98122.34;;;5.01;75.40
46412;BME280;32113;42.012;24.870;2023-01-27T05:10:51;98122.34;;;5.03;75.47
46412;BME280;32113;42.012;24.870;2023-01-27T05:13:17;98131.66;;;5.02;75.31
46412;BME280;32113;42.012;24.870;2023-01-27T05:15:42;98129.94;;;5.06;75.49
46412;BME280;32113;42.012;24.870;2023-01-27T05:18:07;98130.78;;;5.05;74.81
46412;BME280;32113;42.012;24.870;2023-01-27T05:20:32;98134.19;;;5.07;75.48
46412;BME280;32113;42.012;24.870;2023-01-27T05:22:58;98135.03;;;5.07;76.05
46412;BME280;32113;42.012;24.870;2023-01-27T05:25:42;98130.78;;;5.14;75.20
46412;BME280;32113;42.012;24.870;2023-01-27T05:28:08;98135.03;;;5.13;75.27
46412;BME280;32113;42.012;24.870;2023-01-27T05:30:33;98146.03;;;5.17;74.37
46412;BME280;32113;42.012;24.870;2023-01-27T05:32:58;98150.28;;;5.12;74.87
46412;BME280;32113;42.012;24.870;2023-01-27T05:35:23;98156.22;;;5.05;74.31
46412;BME280;32113;42.012;24.870;2023-01-27T05:37:49;98151.16;;;4.98;74.24
46412;BME280;32113;42.012;24.870;2023-01-27T05:40:14;98156.22;;;4.94;75.00
46412;BME280;32113;42.012;24.870;2023-01-27T05:42:39;98159.63;;;4.94;74.15
46412;BME280;32113;42.012;24.870;2023-01-27T05:45:05;98157.06;;;5.00;74.53
46412;BME280;32113;42.012;24.870;2023-01-27T05:47:30;98154.53;;;4.99;74.81
46412;BME280;32113;42.012;24.870;2023-01-27T05:49:56;98146.94;;;4.97;74.98
46412;BME280;32113;42.012;24.870;2023-01-27T05:52:21;98156.25;;;4.98;74.78
46412;BME280;32113;42.012;24.870;2023-01-27T05:54:47;98150.28;;;5.09;74.82
46412;BME280;32113;42.012;24.870;2023-01-27T05:57:12;98146.88;;;5.11;74.37
46412;BME280;32113;42.012;24.870;2023-01-27T05:59:37;98151.13;;;5.08;74.62
46412;BME280;32113;42.012;24.870;2023-01-27T06:02:03;98144.34;;;5.08;74.88
46412;BME280;32113;42.012;24.870;2023-01-27T06:04:28;98141.81;;;5.04;74.87
46412;BME280;32113;42.012;24.870;2023-01-27T06:06:53;98144.38;;;5.05;75.35
46412;BME280;32113;42.012;24.870;2023-01-27T06:09:18;98140.09;;;5.06;75.20
46412;BME280;32113;42.012;24.870;2023-01-27T06:11:44;98150.28;;;5.10;74.67
46412;BME280;32113;42.012;24.870;2023-01-27T06:14:09;98145.19;;;5.07;74.89
46412;BME280;32113;42.012;24.870;2023-01-27T06:16:34;98150.25;;;5.21;75.39
46412;BME280;32113;42.012;24.870;2023-01-27T06:18:59;98151.09;;;5.20;75.41
46412;BME280;32113;42.012;24.870;2023-01-27T06:21:25;98152.81;;;5.21;74.59
46412;BME280;32113;42.012;24.870;2023-01-27T06:23:50;98159.56;;;5.21;75.19
46412;BME280;32113;42.012;24.870;2023-01-27T06:26:18;98152.78;;;5.24;74.12
46412;BME280;32113;42.012;24.870;2023-01-27T06:28:43;98151.91;;;5.29;74.75
46412;BME280;32113;42.012;24.870;2023-01-27T06:31:10;98157.84;;;5.31;74.87
46412;BME280;32113;42.012;24.870;2023-01-27T06:33:36;98160.41;;;5.32;74.29
46412;BME280;32113;42.012;24.870;2023-01-27T06:36:02;98161.19;;;5.39;74.23
46412;BME280;32113;42.012;24.870;2023-01-27T06:38:28;98162.91;;;5.38;73.67
46412;BME280;32113;42.012;24.870;2023-01-27T06:40:53;98152.75;;;5.34;74.79
46412;BME280;32113;42.012;24.870;2023-01-27T06:43:18;98144.25;;;5.41;74.54
46412;BME280;32113;42.012;24.870;2023-01-27T06:45:43;98138.28;;;5.45;75.21
46412;BME280;32113;42.012;24.870;2023-01-27T06:48:09;98134.03;;;5.47;74.69
46412;BME280;32113;42.012;24.870;2023-01-27T06:50:34;98143.34;;;5.55;73.94
46412;BME280;32113;42.012;24.870;2023-01-27T06:53:00;98145.88;;;5.56;73.72
46412;BME280;32113;42.012;24.870;2023-01-27T06:55:26;98140.75;;;5.61;74.28
46412;BME280;32113;42.012;24.870;2023-01-27T06:57:52;98143.31;;;5.62;74.30
46412;BME280;32113;42.012;24.870;2023-01-27T07:00:17;98143.31;;;5.62;73.89
46412;BME280;32113;42.012;24.870;2023-01-27T07:02:43;98142.44;;;5.62;74.30
46412;BME280;32113;42.012;24.870;2023-01-27T07:05:08;98142.44;;;5.68;73.54
46412;BME280;32113;42.012;24.870;2023-01-27T07:07:33;98151.72;;;5.78;73.08
46412;BME280;32113;42.012;24.870;2023-01-27T07:09:59;98146.56;;;5.85;72.98
46412;BME280;32113;42.012;24.870;2023-01-27T07:12:24;98152.53;;;5.84;72.28
46412;BME280;32113;42.012;24.870;2023-01-27T07:14:49;98153.41;;;5.79;72.29
46412;BME280;32113;42.012;24.870;2023-01-27T07:17:14;98150.84;;;5.78;72.83
46412;BME280;32113;42.012;24.870;2023-01-27T07:19:40;98148.31;;;5.78;72.96
46412;BME280;32113;42.012;24.870;2023-01-27T07:22:05;98156.75;;;5.82;73.27
46412;BME280;32113;42.012;24.870;2023-01-27T07:24:30;98155.03;;;5.88;72.74
46412;BME280;32113;42.012;24.870;2023-01-27T07:26:56;98154.97;;;5.99;72.55
46412;BME280;32113;42.012;24.870;2023-01-27T07:29:21;98158.38;;;6.04;71.77
46412;BME280;32113;42.012;24.870;2023-01-27T07:31:46;98158.41;;;6.03;72.49
46412;BME280;32113;42.012;24.870;2023-01-27T07:34:12;98159.22;;;6.05;72.26
46412;BME280;32113;42.012;24.870;2023-01-27T07:36:37;98153.25;;;6.09;72.83
46412;BME280;32113;42.012;24.870;2023-01-27T07:39:02;98153.22;;;6.14;72.58
46412;BME280;32113;42.012;24.870;2023-01-27T07:41:27;98154.84;;;6.24;72.64
46412;BME280;32113;42.012;24.870;2023-01-27T07:43:53;98143.75;;;6.31;72.40
46412;BME280;32113;42.012;24.870;2023-01-27T07:46:18;98137.78;;;6.36;71.74
46412;BME280;32113;42.012;24.870;2023-01-27T07:48:43;98138.63;;;6.35;71.71
46412;BME280;32113;42.012;24.870;2023-01-27T07:51:12;98143.69;;;6.41;71.98
46412;BME280;32113;42.012;24.870;2023-01-27T07:53:40;98145.38;;;6.42;71.49
46412;BME280;32113;42.012;24.870;2023-01-27T07:56:05;98144.53;;;6.41;71.98
46412;BME280;32113;42.012;24.870;2023-01-27T07:58:36;98139.38;;;6.46;71.74
46412;BME280;32113;42.012;24.870;2023-01-27T08:01:03;98135.97;;;6.47;71.73
46412;BME280;32113;42.012;24.870;2023-01-27T08:03:28;98136.84;;;6.48;71.37
46412;BME280;32113;42.012;24.870;2023-01-27T08:05:55;98131.69;;;6.52;71.25
46412;BME280;32113;42.012;24.870;2023-01-27T08:08:20;98133.34;;;6.56;71.46
46412;BME280;32113;42.012;24.870;2023-01-27T08:10:46;98128.22;;;6.60;71.08
46412;BME280;32113;42.012;24.870;2023-01-27T08:13:13;98124.81;;;6.59;71.39
46412;BME280;32113;42.012;24.870;2023-01-27T08:15:39;98128.25;;;6.58;72.08
46412;BME280;32113;42.012;24.870;2023-01-27T08:18:04;98119.78;;;6.56;72.36
46412;BME280;32113;42.012;24.870;2023-01-27T08:20:29;98119.78;;;6.53;72.48
46412;BME280;32113;42.012;24.870;2023-01-27T08:22:56;98121.44;;;6.60;72.01
46412;BME280;32113;42.012;24.870;2023-01-27T08:25:21;98117.13;;;6.67;72.20
46412;BME280;32113;42.012;24.870;2023-01-27T08:27:50;98111.16;;;6.68;72.19
46412;BME280;32113;42.012;24.870;2023-01-27T08:30:16;98108.56;;;6.71;72.34
46412;BME280;32113;42.012;24.870;2023-01-27T08:32:41;98106.84;;;6.76;71.71
46412;BME280;32113;42.012;24.870;2023-01-27T08:35:07;98106.78;;;6.82;71.88
46412;BME280;32113;42.012;24.870;2023-01-27T08:37:32;98099.91;;;6.89;71.45
46412;BME280;32113;42.012;24.870;2023-01-27T08:39:57;98091.38;;;6.92;71.25
46412;BME280;32113;42.012;24.870;2023-01-27T08:42:22;98093.03;;;6.96;71.00
46412;BME280;32113;42.012;24.870;2023-01-27T08:44:48;98095.53;;;6.99;71.25
46412;BME280;32113;42.012;24.870;2023-01-27T08:47:13;98102.41;;;6.94;70.60
46412;BME280;32113;42.012;24.870;2023-01-27T08:49:38;98111.75;;;6.95;70.39
46412;BME280;32113;42.012;24.870;2023-01-27T08:52:04;98115.09;;;6.99;70.42
46412;BME280;32113;42.012;24.870;2023-01-27T08:54:29;98111.78;;;6.92;70.88
46412;BME280;32113;42.012;24.870;2023-01-27T08:56:54;98117.66;;;7.00;70.85
46412;BME280;32113;42.012;24.870;2023-01-27T08:59:20;98112.59;;;6.92;71.48
46412;BME280;32113;42.012;24.870;2023-01-27T09:01:45;98112.56;;;6.97;71.54
46412;BME280;32113;42.012;24.870;2023-01-27T09:04:10;98106.56;;;7.04;70.87
46412;BME280;32113;42.012;24.870;2023-01-27T09:06:35;98113.34;;;7.05;71.12
46412;BME280;32113;42.012;24.870;2023-01-27T09:09:01;98107.38;;;7.06;71.38
46412;BME280;32113;42.012;24.870;2023-01-27T09:11:42;98106.50;;;7.07;71.30
46412;BME280;32113;42.012;24.870;2023-01-27T09:14:08;98105.59;;;7.13;71.23
46412;BME280;32113;42.012;24.870;2023-01-27T09:16:33;98102.13;;;7.19;70.97
46412;BME280;32113;42.012;24.870;2023-01-27T09:18:58;98094.50;;;7.17;70.86
46412;BME280;32113;42.012;24.870;2023-01-27T09:21:24;98092.75;;;7.19;70.81
46412;BME280;32113;42.012;24.870;2023-01-27T09:23:49;98081.66;;;7.22;71.04
46412;BME280;32113;42.012;24.870;2023-01-27T09:26:15;98076.47;;;7.30;70.60
46412;BME280;32113;42.012;24.870;2023-01-27T09:28:40;98067.03;;;7.36;70.37
46412;BME280;32113;42.012;24.870;2023-01-27T09:31:05;98060.09;;;7.46;70.49
46412;BME280;32113;42.012;24.870;2023-01-27T09:33:33;98060.88;;;7.53;70.08
46412;BME280;32113;42.012;24.870;2023-01-27T09:36:09;98059.97;;;7.56;69.94
46412;BME280;32113;42.012;24.870;2023-01-27T09:38:36;98061.56;;;7.63;69.33
46412;BME280;32113;42.012;24.870;2023-01-27T10:12:01;98040.44;;;7.53;69.87
46412;BME280;32113;42.012;24.870;2023-01-27T10:14:39;98034.41;;;7.59;70.07
46412;BME280;32113;42.012;24.870;2023-01-27T10:22:40;98021.53;;;7.67;70.27
46412;BME280;32113;42.012;24.870;2023-01-27T10:24:56;98018.97;;;7.68;69.49
46412;BME280;32113;42.012;24.870;2023-01-27T10:27:26;98018.13;;;7.66;69.44
46412;BME280;32113;42.012;24.870;2023-01-27T10:30:13;98010.34;;;7.72;70.15
46412;BME280;32113;42.012;24.870;2023-01-27T10:32:43;98010.41;;;7.71;70.14
46412;BME280;32113;42.012;24.870;2023-01-27T10:35:16;98011.09;;;7.79;69.84
46412;BME280;32113;42.012;24.870;2023-01-27T10:38:01;98002.56;;;7.82;70.00
46412;BME280;32113;42.012;24.870;2023-01-27T10:43:01;97999.19;;;7.80;70.47
46412;BME280;32113;42.012;24.870;2023-01-27T10:45:40;97999.97;;;7.83;70.73
46412;BME280;32113;42.012;24.870;2023-01-27T10:50:36;97984.47;;;7.96;70.48
46412;BME280;32113;42.012;24.870;2023-01-27T10:55:54;97973.09;;;8.12;70.70
46412;BME280;32113;42.012;24.870;2023-01-27T10:58:57;97977.09;;;8.27;67.96
46412;BME280;32113;42.012;24.870;2023-01-27T11:01:15;97977.22;;;8.21;68.33
46412;BME280;32113;42.012;24.870;2023-01-27T11:03:43;97978.94;;;8.19;68.66
46412;BME280;32113;42.012;24.870;2023-01-27T11:06:15;97971.19;;;8.25;69.09
46412;BME280;32113;42.012;24.870;2023-01-27T11:08:43;97971.03;;;8.33;68.54
46412;BME280;32113;42.012;24.870;2023-01-27T11:11:09;97969.06;;;8.48;68.29
46412;BME280;32113;42.012;24.870;2023-01-27T11:13:58;97968.88;;;8.59;67.80
46412;BME280;32113;42.012;24.870;2023-01-27T11:16:26;97961.06;;;8.66;67.78
46412;BME280;32113;42.012;24.870;2023-01-27T11:18:54;97963.50;;;8.71;66.50
46412;BME280;32113;42.012;24.870;2023-01-27T11:21:21;97967.66;;;8.77;66.22
46412;BME280;32113;42.012;24.870;2023-01-27T11:23:50;97972.22;;;8.62;65.65
46412;BME280;32113;42.012;24.870;2023-01-27T11:34:02;97970.94;;;7.89;68.78
46412;BME280;32113;42.012;24.870;2023-01-27T11:36:29;97962.63;;;7.78;69.92
46412;BME280;32113;42.012;24.870;2023-01-27T11:38:55;97960.16;;;7.73;70.16
46412;BME280;32113;42.012;24.870;2023-01-27T11:41:25;97971.28;;;7.67;70.72
46412;BME280;32113;42.012;24.870;2023-01-27T11:43:51;97960.44;;;7.54;70.73
46412;BME280;32113;42.012;24.870;2023-01-27T11:46:20;97964.88;;;7.43;72.03
46412;BME280;32113;42.012;24.870;2023-01-27T11:48:49;97959.78;;;7.41;71.98
46412;BME280;32113;42.012;24.870;2023-01-27T11:51:25;97952.09;;;7.44;72.78
46412;BME280;32113;42.012;24.870;2023-01-27T11:54:38;97956.22;;;7.53;72.38
46412;BME280;32113;42.012;24.870;2023-01-27T11:56:37;97948.53;;;7.53;72.22
46412;BME280;32113;42.012;24.870;2023-01-27T11:59:04;97949.50;;;7.46;72.18
46412;BME280;32113;42.012;24.870;2023-01-27T12:06:53;97945.00;;;7.60;73.15
46412;BME280;32113;42.012;24.870;2023-01-27T12:09:31;97945.75;;;7.67;72.98
46412;BME280;32113;42.012;24.870;2023-01-27T12:14:59;97929.31;;;7.85;73.47
46412;BME280;32113;42.012;24.870;2023-01-27T12:19:50;97923.75;;;8.10;71.98
46412;BME280;32113;42.012;24.870;2023-01-27T12:22:24;97925.34;;;8.18;71.52
46412;BME280;32113;42.012;24.870;2023-01-27T12:24:51;97920.06;;;8.27;71.01
46412;BME280;32113;42.012;24.870;2023-01-27T12:27:19;97919.91;;;8.35;70.74
46412;BME280;32113;42.012;24.870;2023-01-27T12:29:50;97919.75;;;8.41;70.71
46412;BME280;32113;42.012;24.870;2023-01-27T12:32:40;97923.81;;;8.53;70.27
46412;BME280;32113;42.012;24.870;2023-01-27T12:35:04;97922.13;;;8.53;69.90
46412;BME280;32113;42.012;24.870;2023-01-27T12:37:31;97919.38;;;8.63;69.43
46412;BME280;32113;42.012;24.870;2023-01-27T12:39:58;97920.19;;;8.63;69.46
46412;BME280;32113;42.012;24.870;2023-01-27T12:42:36;97918.34;;;8.70;68.97
46412;BME280;32113;42.012;24.870;2023-01-27T12:50:31;97915.13;;;8.62;68.56
46412;BME280;32113;42.012;24.870;2023-01-27T12:55:39;97905.72;;;8.64;69.31
46412;BME280;32113;42.012;24.870;2023-01-27T12:58:05;97909.88;;;8.70;69.93
46412;BME280;32113;42.012;24.870;2023-01-27T13:00:44;97903.66;;;8.80;69.25
46412;BME280;32113;42.012;24.870;2023-01-27T13:03:10;97903.59;;;8.83;68.42
46412;BME280;32113;42.012;24.870;2023-01-27T13:05:38;97904.38;;;8.87;67.97
46412;BME280;32113;42.012;24.870;2023-01-27T13:08:11;97905.31;;;8.83;67.91
46412;BME280;32113;42.012;24.870;2023-01-27T13:10:37;97904.59;;;8.76;68.74
46412;BME280;32113;42.012;24.870;2023-01-27T13:13:02;97903.59;;;8.83;69.08
46412;BME280;32113;42.012;24.870;2023-01-27T13:15:29;97903.53;;;8.86;68.53
46412;BME280;32113;42.012;24.870;2023-01-27T13:17:55;97896.75;;;8.85;68.08
46412;BME280;32113;42.012;24.870;2023-01-27T13:20:26;97908.75;;;8.82;67.81
46412;BME280;32113;42.012;24.870;2023-01-27T13:25:19;97909.88;;;8.70;67.91
46412;BME280;32113;42.012;24.870;2023-01-27T13:27:46;97906.47;;;8.67;68.27
46412;BME280;32113;42.012;24.870;2023-01-27T13:30:26;97905.75;;;8.62;68.40
46412;BME280;32113;42.012;24.870;2023-01-27T13:32:54;97898.13;;;8.59;68.55
46412;BME280;32113;42.012;24.870;2023-01-27T13:35:23;97907.50;;;8.60;69.33
46412;BME280;32113;42.012;24.870;2023-01-27T13:40:22;97902.44;;;8.57;69.68
46412;BME280;32113;42.012;24.870;2023-01-27T13:43:01;97911.91;;;8.50;69.86
46412;BME280;32113;42.012;24.870;2023-01-27T13:45:39;97917.00;;;8.53;70.46
46412;BME280;32113;42.012;24.870;2023-01-27T13:48:17;97925.59;;;8.48;70.74
46412;BME280;32113;42.012;24.870;2023-01-27T13:50:54;97931.66;;;8.44;70.23
46412;BME280;32113;42.012;24.870;2023-01-27T13:53:22;97937.72;;;8.38;70.36
46412;BME280;32113;42.012;24.870;2023-01-27T14:09:19;97939.66;;;8.25;70.53
46412;BME280;32113;42.012;24.870;2023-01-27T14:11:51;97940.59;;;8.21;70.85
46412;BME280;32113;42.012;24.870;2023-01-27T14:14:21;97945.81;;;8.14;71.44
46412;BME280;32113;42.012;24.870;2023-01-27T14:22:06;97936.84;;;7.93;70.98
46412;BME280;32113;42.012;24.870;2023-01-27T14:24:36;97933.44;;;7.91;71.77
46412;BME280;32113;42.012;24.870;2023-01-27T14:37:15;97948.59;;;7.50;74.59
46412;BME280;32113;42.012;24.870;2023-01-27T14:42:20;97949.34;;;7.57;74.35
46412;BME280;32113;42.012;24.870;2023-01-27T14:53:15;97951.72;;;7.68;74.48
46412;BME280;32113;42.012;24.870;2023-01-27T15:11:06;97955.72;;;7.84;74.81
46412;BME280;32113;42.012;24.870;2023-01-27T15:13:53;97950.66;;;7.81;75.27
46412;BME280;32113;42.012;24.870;2023-01-27T15:26:30;97960.09;;;7.78;76.10
46412;BME280;32113;42.012;24.870;2023-01-27T15:28:56;97961.91;;;7.71;75.71
46412;BME280;32113;42.012;24.870;2023-01-27T15:41:23;97958.44;;;7.15;79.51
46412;BME280;32113;42.012;24.870;2023-01-27T15:44:13;97959.47;;;7.03;80.44
46412;BME280;32113;42.012;24.870;2023-01-27T15:46:43;97965.56;;;6.93;82.24